createdAt,value
2022-10-19T00:01:53.542Z,0.00
2022-10-19T00:07:24.997Z,1.00
2022-10-19T00:12:56.824Z,0.00
2022-10-19T00:18:28.567Z,0.00
2022-10-19T00:24:00.266Z,0.00
2022-10-19T00:29:31.987Z,1.00
2022-10-19T00:35:03.892Z,1.00
2022-10-19T00:40:35.840Z,1.00
2022-10-19T00:46:07.680Z,1.00
2022-10-19T00:51:39.764Z,1.00
2022-10-19T00:57:11.534Z,1.00
2022-10-19T01:02:43.365Z,0.00
2022-10-19T01:08:15.131Z,1.00
2022-10-19T01:13:46.868Z,1.00
2022-10-19T01:19:18.754Z,0.00
2022-10-19T01:24:50.718Z,1.00
2022-10-19T01:30:23.444Z,1.00
2022-10-19T01:35:55.282Z,1.00
2022-10-19T01:46:57.208Z,1.00
2022-10-19T01:52:29.014Z,1.00
2022-10-19T01:58:00.615Z,1.00
2022-10-19T02:03:32.478Z,1.00
2022-10-19T02:09:04.176Z,0.00
2022-10-19T02:14:36.279Z,1.00
2022-10-19T02:20:08.170Z,0.00
2022-10-19T02:25:40.098Z,0.00
2022-10-19T02:31:12.015Z,1.00
2022-10-19T02:36:43.560Z,0.00
2022-10-19T02:42:15.188Z,0.00
2022-10-19T02:47:47.361Z,1.00
2022-10-19T02:53:19.192Z,1.00
2022-10-19T02:58:50.895Z,0.00
2022-10-19T03:04:22.503Z,1.00
2022-10-19T03:09:54.372Z,0.00
2022-10-19T03:15:25.926Z,0.00
2022-10-19T03:20:58.929Z,1.00
2022-10-19T03:26:29.430Z,1.00
2022-10-19T03:32:01.325Z,1.00
2022-10-19T03:37:33.445Z,1.00
2022-10-19T03:43:04.962Z,1.00
2022-10-19T03:48:36.983Z,1.00
2022-10-19T03:56:22.049Z,1.00
2022-10-19T04:01:53.301Z,0.00
2022-10-19T04:07:24.637Z,1.00
2022-10-19T04:12:56.079Z,1.00
2022-10-19T04:18:27.914Z,1.00
2022-10-19T04:23:59.763Z,1.00
2022-10-19T04:29:31.448Z,1.00
2022-10-19T04:35:03.232Z,1.00
2022-10-19T04:40:35.149Z,1.00
2022-10-19T04:46:06.939Z,2.00
2022-10-19T04:51:38.759Z,1.00
2022-10-19T04:59:31.975Z,1.00
2022-10-19T05:05:03.464Z,2.00
2022-10-19T05:10:34.996Z,7.00
2022-10-19T05:16:06.643Z,22.00
2022-10-19T05:21:38.786Z,59.00
2022-10-19T05:27:10.570Z,157.00
2022-10-19T05:32:42.154Z,308.00
2022-10-19T05:38:13.507Z,463.00
2022-10-19T05:43:44.975Z,573.00
2022-10-19T05:49:16.430Z,751.00
2022-10-19T05:54:48.037Z,1125.00
2022-10-19T06:00:19.760Z,1352.00
2022-10-19T06:05:51.774Z,1496.00
2022-10-19T06:11:23.601Z,1894.00
2022-10-19T06:16:55.301Z,2288.00
2022-10-19T06:22:27.210Z,2562.00
2022-10-19T06:27:58.883Z,2641.00
2022-10-19T06:33:30.525Z,2981.00
2022-10-19T06:39:02.004Z,3663.00
2022-10-19T06:44:33.765Z,4305.00
2022-10-19T06:50:05.382Z,5296.00
2022-10-19T06:55:36.850Z,5407.00
2022-10-19T07:01:08.616Z,6274.00
2022-10-19T07:06:40.460Z,6435.00
2022-10-19T07:12:11.926Z,7839.00
2022-10-19T07:17:43.495Z,8950.00
2022-10-19T07:23:15.614Z,9373.00
2022-10-19T07:28:47.215Z,8844.00
2022-10-19T07:34:19.090Z,8887.00
2022-10-19T07:39:50.558Z,10145.00
2022-10-19T07:45:22.236Z,10896.00
2022-10-19T07:50:53.612Z,14019.00
2022-10-19T07:56:25.342Z,15939.00
2022-10-19T08:01:56.696Z,15990.00
2022-10-19T08:07:28.558Z,16297.00
2022-10-19T08:13:00.616Z,17412.00
2022-10-19T08:24:03.895Z,17971.00
2022-10-19T08:29:35.650Z,17426.00
2022-10-19T08:35:10.765Z,16642.00
2022-10-19T08:40:39.226Z,20285.00
2022-10-19T08:46:10.921Z,19089.00
2022-10-19T08:51:42.274Z,23703.00
2022-10-19T08:57:14.459Z,23788.00
2022-10-19T09:02:46.455Z,24019.00
2022-10-19T09:08:18.221Z,21257.00
2022-10-19T09:14:05.928Z,28509.00
2022-10-19T09:19:21.692Z,25401.00
2022-10-19T09:24:53.932Z,27545.00
2022-10-19T09:30:25.850Z,24144.00
2022-10-19T09:35:57.737Z,28960.00
2022-10-19T09:41:29.679Z,23883.00
2022-10-19T09:47:02.103Z,25155.00
2022-10-19T09:52:34.022Z,25803.00
2022-10-19T09:58:07.357Z,33184.00
2022-10-19T10:03:38.998Z,35083.00
2022-10-19T10:09:10.982Z,32674.00
2022-10-19T10:14:43.017Z,33430.00
2022-10-19T10:25:46.328Z,35082.00
2022-10-19T10:31:18.361Z,35843.00
2022-10-19T10:36:52.952Z,37831.00
2022-10-19T10:42:26.656Z,27111.00
2022-10-19T10:48:01.294Z,26809.00
2022-10-19T10:53:32.518Z,30613.00
2022-10-19T10:59:04.392Z,32535.00
2022-10-19T11:04:35.997Z,33312.00
2022-10-19T11:10:07.741Z,37772.00
2022-10-19T11:15:39.265Z,34209.00
2022-10-19T11:21:11.003Z,36384.00
2022-10-19T11:26:43.605Z,36726.00
2022-10-19T11:32:15.232Z,35913.00
2022-10-19T11:37:50.105Z,33587.00
2022-10-19T11:43:19.696Z,33258.00
2022-10-19T11:48:54.179Z,28163.00
2022-10-19T11:54:22.516Z,26648.00
2022-10-19T11:59:57.586Z,27664.00
2022-10-19T12:05:26.512Z,22549.00
2022-10-19T12:10:58.427Z,19221.00
2022-10-19T12:16:30.558Z,26085.00
2022-10-19T12:22:01.754Z,20440.00
2022-10-19T12:27:34.224Z,18606.00
2022-10-19T12:33:05.367Z,19803.00
2022-10-19T12:38:38.762Z,25086.00
2022-10-19T12:44:08.673Z,31951.00
2022-10-19T12:49:40.361Z,29267.00
2022-10-19T12:55:12.189Z,32061.00
2022-10-19T13:00:44.199Z,29175.00
2022-10-19T13:06:15.603Z,26150.00
2022-10-19T13:11:47.529Z,24811.00
2022-10-19T13:17:19.314Z,31240.00
2022-10-19T13:22:50.952Z,35064.00
2022-10-19T13:28:23.061Z,30107.00
2022-10-19T13:39:24.631Z,30765.00
2022-10-19T13:44:56.565Z,24166.00
2022-10-19T13:50:28.378Z,18730.00
2022-10-19T13:56:00.494Z,20273.00
2022-10-19T14:01:32.791Z,21499.00
2022-10-19T14:12:34.241Z,14955.00
2022-10-19T14:18:06.252Z,17751.00
2022-10-19T14:23:37.855Z,24329.00
2022-10-19T14:29:09.738Z,18431.00
2022-10-19T14:34:41.627Z,13466.00
2022-10-19T14:40:13.435Z,14000.00
2022-10-19T14:45:45.293Z,14563.00
2022-10-19T14:51:17.320Z,15751.00
2022-10-19T14:56:49.135Z,14733.00
2022-10-19T15:02:20.959Z,11009.00
2022-10-19T15:07:53.120Z,8497.00
2022-10-19T15:13:24.900Z,6656.00
2022-10-19T15:24:28.934Z,8448.00
2022-10-19T15:30:01.066Z,5533.00
2022-10-19T15:41:02.774Z,4493.00
2022-10-19T15:46:35.038Z,3447.00
2022-10-19T15:57:39.631Z,1967.00
2022-10-19T16:03:11.169Z,1391.00
2022-10-19T16:08:43.160Z,1063.00
2022-10-19T16:19:47.350Z,437.00
2022-10-19T16:25:19.500Z,262.00
2022-10-19T16:30:51.468Z,132.00
2022-10-19T16:36:23.309Z,50.00
2022-10-19T16:41:55.572Z,18.00
2022-10-19T16:47:27.610Z,7.00
2022-10-19T16:53:00.298Z,4.00
2022-10-19T16:58:32.450Z,3.00
2022-10-19T17:04:04.632Z,3.00
2022-10-19T17:09:41.729Z,3.00
2022-10-19T17:20:40.536Z,3.00
2022-10-19T17:26:12.328Z,2.00
2022-10-19T17:31:43.849Z,2.00
2022-10-19T17:37:15.853Z,3.00
2022-10-19T17:42:47.808Z,2.00
2022-10-19T17:48:19.847Z,2.00
2022-10-19T17:53:51.926Z,2.00
2022-10-19T17:59:34.953Z,3.00
2022-10-19T18:04:55.465Z,3.00
2022-10-19T18:10:27.202Z,2.00
2022-10-19T18:12:44.703Z,2.00
2022-10-19T18:18:16.226Z,15.00
2022-10-19T18:23:54.124Z,15.00
2022-10-19T18:29:26.104Z,15.00
2022-10-19T18:34:57.870Z,14.00
2022-10-19T18:40:35.386Z,14.00
2022-10-19T18:46:07.303Z,14.00
2022-10-19T18:57:08.740Z,14.00
2022-10-19T19:02:46.710Z,15.00
2022-10-19T19:10:33.171Z,14.00
2022-10-19T19:16:04.981Z,14.00
2022-10-19T19:21:38.210Z,14.00
2022-10-19T19:27:10.182Z,14.00
2022-10-19T19:32:42.318Z,14.00
2022-10-19T19:38:14.389Z,14.00
2022-10-19T19:49:15.789Z,14.00
2022-10-19T19:54:47.713Z,14.00
2022-10-19T20:05:49.482Z,13.00
2022-10-19T20:11:21.783Z,2.00
2022-10-19T20:16:53.780Z,2.00
2022-10-19T20:27:55.247Z,2.00
2022-10-19T20:33:27.164Z,2.00
2022-10-19T20:38:59.198Z,2.00
2022-10-19T20:44:30.810Z,2.00
2022-10-19T20:55:34.387Z,2.00
2022-10-19T21:03:26.310Z,2.00
2022-10-19T21:14:28.493Z,2.00
2022-10-19T21:25:30.910Z,2.00
2022-10-19T21:31:02.855Z,2.00
2022-10-19T21:36:34.813Z,2.00
2022-10-19T21:42:06.653Z,2.00
2022-10-19T21:47:38.557Z,2.00
2022-10-19T21:53:10.300Z,2.00
2022-10-19T21:58:43.043Z,2.00
2022-10-19T22:04:15.064Z,2.00
2022-10-19T22:09:46.670Z,2.00
2022-10-19T22:15:18.632Z,2.00
2022-10-19T22:20:50.306Z,2.00
2022-10-19T22:26:22.262Z,2.00
2022-10-19T22:37:25.541Z,2.00
2022-10-19T22:42:57.709Z,1.00
2022-10-19T22:48:29.959Z,2.00
2022-10-19T22:54:02.043Z,1.00
2022-10-19T22:59:34.473Z,2.00
2022-10-19T23:05:06.806Z,1.00
2022-10-19T23:10:39.011Z,2.00
2022-10-19T23:16:10.877Z,1.00
2022-10-19T23:21:42.897Z,1.00
2022-10-19T23:27:14.674Z,1.00
2022-10-19T23:32:46.269Z,1.00
2022-10-19T23:38:18.069Z,1.00
2022-10-19T23:43:51.717Z,0.00
2022-10-19T23:49:23.500Z,0.00
2022-10-19T23:54:55.305Z,0.00
